createdAt,value
2019-01-10T00:01:05.229Z,2.73
2019-01-10T00:03:46.074Z,1.40
2019-01-10T00:06:27.404Z,0.90
2019-01-10T00:09:08.859Z,1.40
2019-01-10T00:11:50.423Z,1.10
2019-01-10T00:14:31.291Z,1.20
2019-01-10T00:17:12.862Z,0.87
2019-01-10T00:19:54.370Z,1.43
2019-01-10T00:22:36.015Z,1.10
2019-01-10T00:25:16.793Z,1.13
2019-01-10T00:27:58.436Z,0.90
2019-01-10T00:30:39.986Z,1.80
2019-01-10T00:33:21.658Z,2.87
2019-01-10T00:36:02.478Z,1.30
2019-01-10T00:38:43.827Z,2.03
2019-01-10T00:41:25.517Z,0.90
2019-01-10T00:44:06.524Z,1.10
2019-01-10T00:46:48.025Z,1.10
2019-01-10T00:49:29.714Z,1.60
2019-01-10T00:52:11.177Z,1.43
2019-01-10T00:54:52.651Z,2.43
2019-01-10T00:57:34.325Z,1.30
2019-01-10T01:00:16.036Z,1.10
2019-01-10T01:02:57.431Z,1.20
2019-01-10T01:05:38.932Z,1.07
2019-01-10T01:08:20.304Z,1.13
2019-01-10T01:11:01.738Z,1.13
2019-01-10T01:13:43.127Z,1.60
2019-01-10T01:16:24.637Z,1.47
2019-01-10T01:19:06.316Z,1.50
2019-01-10T01:21:47.598Z,1.83
2019-01-10T01:24:29.275Z,1.50
2019-01-10T01:27:10.543Z,1.60
2019-01-10T01:29:51.754Z,1.37
2019-01-10T01:32:33.141Z,1.20
2019-01-10T01:35:14.037Z,1.57
2019-01-10T01:37:54.971Z,1.80
2019-01-10T01:44:11.889Z,1.50
2019-01-10T01:47:00.615Z,1.40
2019-01-10T01:49:49.362Z,1.20
2019-01-10T01:52:38.279Z,1.23
2019-01-10T01:55:09.626Z,1.73
2019-01-10T01:57:39.334Z,1.67
2019-01-10T02:03:28.224Z,1.20
2019-01-10T02:06:17.001Z,1.63
2019-01-10T02:12:46.191Z,1.77
2019-01-10T02:15:24.981Z,1.67
2019-01-10T02:18:32.686Z,2.80
2019-01-10T02:21:21.428Z,1.40
2019-01-10T02:33:41.671Z,1.80
2019-01-10T02:39:25.717Z,1.87
2019-01-10T02:42:07.069Z,1.60
2019-01-10T02:44:48.238Z,2.00
2019-01-10T02:47:32.801Z,1.93
2019-01-10T02:50:14.520Z,1.83
2019-01-10T02:52:56.180Z,1.70
2019-01-10T02:55:37.453Z,2.73
2019-01-10T02:58:19.182Z,1.67
2019-01-10T03:01:00.843Z,1.80
2019-01-10T03:03:41.711Z,1.60
2019-01-10T03:06:23.479Z,1.77
2019-01-10T03:09:05.080Z,1.60
2019-01-10T03:11:46.580Z,2.33
2019-01-10T03:14:28.095Z,1.60
2019-01-10T03:17:08.833Z,2.33
2019-01-10T03:19:50.162Z,2.07
2019-01-10T03:22:31.514Z,1.77
2019-01-10T03:25:01.670Z,1.73
2019-01-10T03:27:58.186Z,1.80
2019-01-10T03:30:46.960Z,2.43
2019-01-10T03:33:28.373Z,1.60
2019-01-10T03:36:07.131Z,1.93
2019-01-10T03:39:07.491Z,1.57
2019-01-10T03:41:47.098Z,2.23
2019-01-10T03:44:36.702Z,1.97
2019-01-10T03:47:25.587Z,2.00
2019-01-10T03:50:14.927Z,1.60
2019-01-10T03:55:45.574Z,1.50
2019-01-10T03:58:15.561Z,2.07
2019-01-10T04:00:45.426Z,3.37
2019-01-10T04:03:18.497Z,2.63
2019-01-10T04:05:48.277Z,2.33
2019-01-10T04:08:37.190Z,1.63
2019-01-10T04:11:26.010Z,2.03
2019-01-10T04:14:14.783Z,2.17
2019-01-10T04:17:03.501Z,2.27
2019-01-10T04:19:52.286Z,2.57
2019-01-10T04:22:31.037Z,1.70
2019-01-10T04:25:19.867Z,2.97
2019-01-10T04:36:40.426Z,2.27
2019-01-10T04:39:18.519Z,1.93
2019-01-10T04:42:07.365Z,1.93
2019-01-10T04:44:56.072Z,2.27
2019-01-10T04:47:44.961Z,1.80
2019-01-10T04:53:26.628Z,1.43
2019-01-10T04:56:14.539Z,1.87
2019-01-10T04:58:55.394Z,1.53
2019-01-10T05:01:37.190Z,1.93
2019-01-10T05:04:18.721Z,2.40
2019-01-10T05:07:00.128Z,2.10
2019-01-10T05:09:41.784Z,1.77
2019-01-10T05:12:22.801Z,2.10
2019-01-10T05:15:22.483Z,1.47
2019-01-10T05:18:11.150Z,2.17
2019-01-10T05:21:00.821Z,2.57
2019-01-10T05:23:30.843Z,1.97
2019-01-10T05:26:19.606Z,2.33
2019-01-10T05:29:08.429Z,1.97
2019-01-10T05:34:40.600Z,2.00
2019-01-10T05:37:41.249Z,2.67
2019-01-10T05:40:20.209Z,2.50
2019-01-10T05:42:50.086Z,2.30
2019-01-10T05:45:34.500Z,2.00
2019-01-10T05:47:51.786Z,2.07
2019-01-10T05:50:40.519Z,2.20
2019-01-10T05:53:10.319Z,1.70
2019-01-10T05:55:59.016Z,2.27
2019-01-10T06:04:05.041Z,3.27
2019-01-10T06:06:46.616Z,2.47
2019-01-10T06:09:28.002Z,2.27
2019-01-10T06:12:09.512Z,1.73
2019-01-10T06:14:50.960Z,1.97
2019-01-10T06:17:21.202Z,2.47
2019-01-10T06:23:51.897Z,2.17
2019-01-10T06:26:21.618Z,2.07
2019-01-10T06:28:51.660Z,2.77
2019-01-10T06:31:59.384Z,2.13
2019-01-10T06:34:48.114Z,1.90
2019-01-10T06:37:17.910Z,2.13
2019-01-10T06:40:07.443Z,2.27
2019-01-10T06:42:37.500Z,2.33
2019-01-10T06:45:26.293Z,2.70
2019-01-10T06:47:56.161Z,2.57
2019-01-10T06:50:44.910Z,2.93
2019-01-10T06:53:14.703Z,2.13
2019-01-10T06:56:03.418Z,2.30
2019-01-10T06:58:33.269Z,2.50
2019-01-10T07:01:17.936Z,2.63
2019-01-10T07:07:07.047Z,2.00
2019-01-10T07:09:43.888Z,2.47
2019-01-10T07:12:13.599Z,1.90
2019-01-10T07:14:53.354Z,2.37
2019-01-10T07:17:16.084Z,2.00
2019-01-10T07:19:46.658Z,1.83
2019-01-10T07:22:18.034Z,2.37
2019-01-10T07:24:53.084Z,2.00
2019-01-10T07:27:22.950Z,2.40
2019-01-10T07:29:59.625Z,2.37
2019-01-10T07:32:30.039Z,2.37
2019-01-10T07:35:17.849Z,2.30
2019-01-10T07:37:55.360Z,2.43
2019-01-10T07:40:25.470Z,2.90
2019-01-10T07:42:55.462Z,3.10
2019-01-10T07:45:26.830Z,2.27
2019-01-10T07:47:56.570Z,2.30
2019-01-10T07:50:36.900Z,2.10
2019-01-10T07:53:08.306Z,2.80
2019-01-10T07:55:38.775Z,2.40
2019-01-10T07:58:08.749Z,2.30
2019-01-10T08:00:39.326Z,2.97
2019-01-10T08:03:09.287Z,2.90
2019-01-10T08:05:39.648Z,3.23
2019-01-10T08:08:10.156Z,2.87
2019-01-10T08:10:40.217Z,3.90
2019-01-10T08:13:10.016Z,3.40
2019-01-10T08:15:43.430Z,2.67
2019-01-10T08:18:13.312Z,4.27
2019-01-10T08:20:47.703Z,2.70
2019-01-10T08:23:17.842Z,3.27
2019-01-10T08:25:47.684Z,3.37
2019-01-10T08:28:17.547Z,3.80
2019-01-10T08:30:50.833Z,2.67
2019-01-10T08:33:20.915Z,2.60
2019-01-10T08:35:53.893Z,2.37
2019-01-10T08:38:23.946Z,3.07
2019-01-10T08:40:56.878Z,2.80
2019-01-10T08:43:26.665Z,2.40
2019-01-10T08:45:59.906Z,2.77
2019-01-10T08:52:17.695Z,2.57
2019-01-10T08:54:48.098Z,2.27
2019-01-10T08:57:17.861Z,2.47
2019-01-10T08:59:47.761Z,1.97
2019-01-10T09:02:17.973Z,3.07
2019-01-10T09:04:47.755Z,2.90
2019-01-10T09:07:17.630Z,2.80
2019-01-10T09:09:47.782Z,3.07
2019-01-10T09:12:17.615Z,2.87
2019-01-10T09:14:59.016Z,2.60
2019-01-10T09:17:19.299Z,3.43
2019-01-10T09:19:50.906Z,3.33
2019-01-10T09:25:38.823Z,4.17
2019-01-10T09:28:27.667Z,4.00
2019-01-10T09:39:45.562Z,3.63
2019-01-10T09:42:15.386Z,3.27
2019-01-10T09:44:45.784Z,3.43
2019-01-10T09:47:17.551Z,3.03
2019-01-10T09:49:47.360Z,2.87
2019-01-10T09:52:17.079Z,3.77
2019-01-10T09:54:47.217Z,3.43
2019-01-10T09:57:16.955Z,3.03
2019-01-10T09:59:46.686Z,3.43
2019-01-10T10:02:16.974Z,4.20
2019-01-10T10:04:49.680Z,3.40
2019-01-10T10:07:19.612Z,3.77
2019-01-10T10:09:49.772Z,4.10
2019-01-10T10:12:49.539Z,3.80
2019-01-10T10:15:20.180Z,3.57
2019-01-10T10:18:01.381Z,3.97
2019-01-10T10:23:09.242Z,5.00
2019-01-10T10:25:39.115Z,3.27
2019-01-10T10:28:09.337Z,4.10
2019-01-10T10:30:39.162Z,3.97
2019-01-10T10:33:29.382Z,3.73
2019-01-10T10:36:18.598Z,3.93
2019-01-10T10:38:48.610Z,2.73
2019-01-10T10:41:18.808Z,3.47
2019-01-10T10:43:48.552Z,3.33
2019-01-10T10:46:18.389Z,3.97
2019-01-10T10:48:48.571Z,3.93
2019-01-10T10:51:18.556Z,3.83
2019-01-10T10:53:48.313Z,3.37
2019-01-10T10:56:18.416Z,2.87
2019-01-10T10:58:48.305Z,3.73
2019-01-10T11:01:18.201Z,3.77
2019-01-10T11:03:48.624Z,4.13
2019-01-10T11:06:37.425Z,4.30
2019-01-10T11:09:09.811Z,3.27
2019-01-10T11:11:39.652Z,3.33
2019-01-10T11:14:09.891Z,5.07
2019-01-10T11:16:39.624Z,4.87
2019-01-10T11:19:09.490Z,4.17
2019-01-10T11:21:51.380Z,3.90
2019-01-10T11:24:26.583Z,4.00
2019-01-10T11:26:56.802Z,3.43
2019-01-10T11:29:45.764Z,3.33
2019-01-10T11:32:15.896Z,3.23
2019-01-10T11:35:06.192Z,3.47
2019-01-10T11:37:55.084Z,3.77
2019-01-10T11:40:25.070Z,4.93
2019-01-10T11:42:56.258Z,4.23
2019-01-10T11:45:40.601Z,5.47
2019-01-10T11:50:50.974Z,4.87
2019-01-10T11:53:20.826Z,4.20
2019-01-10T11:55:50.666Z,3.07
2019-01-10T11:58:39.493Z,3.77
2019-01-10T12:01:09.646Z,2.60
2019-01-10T12:03:39.752Z,2.80
2019-01-10T12:06:09.595Z,2.40
2019-01-10T12:08:39.547Z,2.37
2019-01-10T12:11:09.724Z,2.23
2019-01-10T12:13:39.622Z,2.30
2019-01-10T12:16:09.468Z,2.37
2019-01-10T12:18:41.138Z,2.17
2019-01-10T12:21:10.957Z,3.00
2019-01-10T12:23:41.728Z,2.50
2019-01-10T12:26:11.876Z,2.67
2019-01-10T12:28:41.710Z,2.63
2019-01-10T12:40:29.560Z,2.30
2019-01-10T12:42:59.678Z,2.90
2019-01-10T12:45:48.503Z,2.80
2019-01-10T12:48:18.664Z,2.47
2019-01-10T12:50:48.748Z,2.37
2019-01-10T12:53:37.655Z,2.80
2019-01-10T12:56:26.429Z,3.23
2019-01-10T12:58:56.670Z,3.00
2019-01-10T13:01:26.451Z,2.70
2019-01-10T13:03:56.254Z,2.37
2019-01-10T13:06:45.201Z,2.90
2019-01-10T13:09:15.048Z,2.67
2019-01-10T13:11:47.236Z,3.20
2019-01-10T13:14:17.047Z,3.77
2019-01-10T13:20:27.028Z,3.13
2019-01-10T13:22:47.307Z,2.97
2019-01-10T13:25:19.004Z,3.23
2019-01-10T13:27:49.412Z,3.23
2019-01-10T13:30:57.273Z,3.70
2019-01-10T13:33:46.310Z,2.33
2019-01-10T13:36:16.422Z,2.27
2019-01-10T13:39:07.267Z,2.67
2019-01-10T13:41:37.509Z,2.00
2019-01-10T13:44:07.318Z,2.70
2019-01-10T13:46:37.197Z,2.23
2019-01-10T13:49:08.451Z,2.23
2019-01-10T13:51:38.370Z,1.97
2019-01-10T13:57:38.333Z,2.07
2019-01-10T14:00:21.086Z,2.30
2019-01-10T14:02:50.910Z,2.33
2019-01-10T14:05:21.019Z,2.10
2019-01-10T14:07:50.945Z,2.40
2019-01-10T14:10:21.221Z,2.20
2019-01-10T14:12:51.501Z,1.97
2019-01-10T14:15:41.768Z,2.00
2019-01-10T14:18:30.524Z,2.03
2019-01-10T14:21:00.691Z,2.30
2019-01-10T14:23:30.894Z,1.73
2019-01-10T14:26:01.706Z,2.00
2019-01-10T14:28:31.759Z,1.80
2019-01-10T14:31:01.860Z,1.73
2019-01-10T14:33:31.675Z,1.40
2019-01-10T14:36:01.491Z,1.80
2019-01-10T14:38:31.677Z,1.80
2019-01-10T14:41:01.690Z,1.30
2019-01-10T14:43:50.659Z,1.73
2019-01-10T14:46:40.848Z,1.93
2019-01-10T14:49:10.963Z,1.53
2019-01-10T14:51:40.992Z,1.73
2019-01-10T14:54:11.967Z,1.63
2019-01-10T14:57:00.877Z,1.87
2019-01-10T14:59:49.646Z,1.67
2019-01-10T15:02:57.451Z,2.23
2019-01-10T15:05:39.745Z,1.60
2019-01-10T15:11:17.154Z,1.70
2019-01-10T15:13:47.293Z,1.60
2019-01-10T15:16:55.037Z,2.07
2019-01-10T15:19:43.951Z,2.13
2019-01-10T15:22:13.877Z,1.97
2019-01-10T15:28:04.641Z,2.60
2019-01-10T15:30:35.047Z,2.43
2019-01-10T15:33:05.048Z,2.30
2019-01-10T15:35:34.857Z,2.13
2019-01-10T15:38:23.898Z,2.57
2019-01-10T15:41:26.695Z,2.13
2019-01-10T15:43:44.603Z,2.50
2019-01-10T15:46:14.851Z,2.47
2019-01-10T15:48:44.869Z,2.27
2019-01-10T15:51:14.920Z,1.97
2019-01-10T15:53:44.791Z,2.30
2019-01-10T15:56:14.691Z,1.80
2019-01-10T15:58:44.826Z,2.03
2019-01-10T16:01:14.818Z,2.40
2019-01-10T16:03:44.870Z,2.33
2019-01-10T16:06:15.050Z,2.63
2019-01-10T16:08:45.744Z,2.53
2019-01-10T16:11:34.613Z,2.40
2019-01-10T16:14:04.674Z,3.07
2019-01-10T16:16:34.867Z,3.33
2019-01-10T16:19:04.778Z,3.57
2019-01-10T16:21:34.583Z,3.43
2019-01-10T16:24:23.431Z,3.00
2019-01-10T16:29:42.737Z,2.67
2019-01-10T16:32:12.801Z,2.80
2019-01-10T16:35:02.360Z,4.07
2019-01-10T16:41:02.751Z,4.00
2019-01-10T16:43:54.011Z,3.07
2019-01-10T16:46:24.372Z,2.80
2019-01-10T16:48:54.910Z,3.80
2019-01-10T16:51:24.796Z,3.40
2019-01-10T16:57:13.176Z,2.93
2019-01-10T16:59:43.700Z,2.40
2019-01-10T17:02:13.629Z,2.97
2019-01-10T17:07:20.761Z,4.13
2019-01-10T17:09:50.740Z,3.20
2019-01-10T17:12:39.591Z,2.93
2019-01-10T17:15:22.623Z,3.20
2019-01-10T17:18:00.869Z,3.40
2019-01-10T17:20:31.697Z,3.47
2019-01-10T17:23:02.010Z,3.80
2019-01-10T17:25:32.053Z,3.03
2019-01-10T17:28:01.907Z,3.30
2019-01-10T17:30:32.674Z,3.67
2019-01-10T17:33:04.489Z,3.70
2019-01-10T17:35:53.407Z,3.17
2019-01-10T17:38:23.393Z,3.67
2019-01-10T17:41:12.337Z,4.40
2019-01-10T17:43:42.287Z,3.60
2019-01-10T17:46:12.471Z,3.77
2019-01-10T17:49:01.545Z,3.13
2019-01-10T17:51:50.329Z,2.90
2019-01-10T17:54:22.962Z,4.00
2019-01-10T17:56:53.092Z,3.77
2019-01-10T17:59:22.894Z,3.20
2019-01-10T18:01:52.846Z,2.97
2019-01-10T18:04:41.736Z,3.37
2019-01-10T18:07:42.549Z,3.03
2019-01-10T18:10:03.010Z,3.63
2019-01-10T18:12:33.009Z,3.77
2019-01-10T18:15:05.692Z,3.57
2019-01-10T18:17:37.124Z,3.40
2019-01-10T18:22:54.660Z,4.03
2019-01-10T18:25:43.593Z,4.17
2019-01-10T18:28:44.234Z,3.77
2019-01-10T18:31:39.776Z,3.63
2019-01-10T18:34:08.670Z,4.13
2019-01-10T18:36:39.485Z,3.83
2019-01-10T18:39:09.720Z,5.40
2019-01-10T18:41:58.750Z,3.33
2019-01-10T18:50:49.401Z,3.60
2019-01-10T18:53:09.232Z,4.17
2019-01-10T18:55:39.495Z,3.90
2019-01-10T18:58:09.834Z,4.20
2019-01-10T19:00:40.066Z,3.33
2019-01-10T19:03:29.090Z,3.93
2019-01-10T19:05:59.366Z,4.17
2019-01-10T19:08:29.660Z,4.17
2019-01-10T19:11:18.500Z,4.30
2019-01-10T19:13:48.490Z,3.83
2019-01-10T19:16:37.419Z,4.30
2019-01-10T19:19:07.295Z,4.03
2019-01-10T19:21:56.134Z,4.17
2019-01-10T19:24:26.139Z,5.53
2019-01-10T19:27:15.271Z,3.90
2019-01-10T19:33:44.522Z,3.93
2019-01-10T19:36:23.616Z,4.53
2019-01-10T19:38:54.119Z,3.63
2019-01-10T19:44:33.348Z,3.40
2019-01-10T19:47:03.467Z,3.77
2019-01-10T19:49:58.277Z,3.97
2019-01-10T19:52:57.193Z,3.70
2019-01-10T19:55:16.094Z,3.73
2019-01-10T19:58:05.379Z,3.53
2019-01-10T20:00:57.600Z,2.90
2019-01-10T20:03:46.580Z,2.53
2019-01-10T20:06:16.998Z,3.17
2019-01-10T20:12:35.313Z,2.43
2019-01-10T20:15:24.415Z,1.50
2019-01-10T20:17:54.704Z,3.10
2019-01-10T20:20:49.025Z,2.00
2019-01-10T20:23:39.719Z,1.97
2019-01-10T20:26:28.938Z,2.07
2019-01-10T20:29:18.194Z,2.30
2019-01-10T20:35:16.400Z,2.10
2019-01-10T20:38:05.872Z,2.00
2019-01-10T20:40:54.959Z,2.17
2019-01-10T20:43:24.965Z,2.00
2019-01-10T20:45:55.431Z,1.77
2019-01-10T20:48:45.729Z,1.90
2019-01-10T20:51:34.906Z,1.73
2019-01-10T20:57:26.429Z,1.43
2019-01-10T21:00:17.207Z,1.70
2019-01-10T21:03:06.166Z,2.10
2019-01-10T21:05:36.491Z,1.60
2019-01-10T21:08:25.650Z,2.23
2019-01-10T21:10:55.860Z,3.17
2019-01-10T21:13:44.808Z,2.37
2019-01-10T21:16:14.842Z,2.60
2019-01-10T21:19:03.673Z,2.00
2019-01-10T21:24:42.859Z,2.90
2019-01-10T21:30:23.123Z,2.90
2019-01-10T21:33:12.114Z,3.70
2019-01-10T21:36:01.141Z,2.80
2019-01-10T21:38:49.302Z,3.20
2019-01-10T21:41:28.202Z,3.63
2019-01-10T21:44:09.917Z,3.00
2019-01-10T21:46:51.745Z,2.63
2019-01-10T21:49:33.051Z,4.30
2019-01-10T21:52:14.570Z,2.93
2019-01-10T21:54:44.816Z,2.97
2019-01-10T21:57:35.191Z,3.33
2019-01-10T22:00:07.608Z,2.43
2019-01-10T22:02:57.396Z,2.60
2019-01-10T22:05:28.085Z,2.80
2019-01-10T22:07:58.840Z,2.90
2019-01-10T22:10:29.362Z,3.37
2019-01-10T22:12:59.698Z,4.30
2019-01-10T22:16:00.436Z,3.17
2019-01-10T22:18:59.919Z,3.53
2019-01-10T22:21:48.959Z,3.80
2019-01-10T22:24:19.265Z,4.87
2019-01-10T22:27:27.211Z,5.40
2019-01-10T22:33:06.788Z,5.60
2019-01-10T22:39:10.964Z,5.03
2019-01-10T22:41:56.181Z,5.53
2019-01-10T22:50:52.487Z,5.33
2019-01-10T22:56:56.054Z,6.23
2019-01-10T22:59:14.198Z,6.27
2019-01-10T23:02:03.891Z,5.80
2019-01-10T23:10:34.874Z,5.70
2019-01-10T23:13:37.982Z,6.53
2019-01-10T23:16:46.344Z,6.10
2019-01-10T23:19:25.389Z,5.90
2019-01-10T23:28:43.838Z,6.23
2019-01-10T23:31:44.471Z,6.87
2019-01-10T23:34:31.093Z,8.77
2019-01-10T23:37:39.006Z,8.83
2019-01-10T23:40:45.989Z,9.80
2019-01-10T23:46:06.211Z,11.87
2019-01-10T23:48:47.892Z,11.60
2019-01-10T23:51:29.735Z,11.30
2019-01-10T23:54:11.451Z,11.00
2019-01-10T23:56:53.288Z,10.87
2019-01-10T23:59:34.938Z,10.87
